createdAt,value
2018-07-25T00:00:07.859Z,51.40
2018-07-25T00:02:35.897Z,51.74
2018-07-25T00:05:05.169Z,52.35
2018-07-25T00:07:33.204Z,52.45
2018-07-25T00:10:01.236Z,51.74
2018-07-25T00:12:29.264Z,52.37
2018-07-25T00:14:58.004Z,51.67
2018-07-25T00:17:26.278Z,51.69
2018-07-25T00:19:54.292Z,52.17
2018-07-25T00:22:22.320Z,52.48
2018-07-25T00:24:50.364Z,51.92
2018-07-25T00:27:18.393Z,51.79
2018-07-25T00:29:46.441Z,52.06
2018-07-25T00:32:14.473Z,51.46
2018-07-25T00:34:42.514Z,52.14
2018-07-25T00:37:10.569Z,52.24
2018-07-25T00:39:38.606Z,52.43
2018-07-25T00:42:06.697Z,52.21
2018-07-25T00:44:34.732Z,52.04
2018-07-25T00:47:02.781Z,52.85
2018-07-25T00:49:30.808Z,52.22
2018-07-25T00:51:58.857Z,53.23
2018-07-25T00:54:27.905Z,53.49
2018-07-25T00:56:55.962Z,53.02
2018-07-25T00:59:23.996Z,53.19
2018-07-25T01:01:52.033Z,53.24
2018-07-25T01:04:20.073Z,53.23
2018-07-25T01:06:48.121Z,52.92
2018-07-25T01:09:16.149Z,52.79
2018-07-25T01:11:44.184Z,52.39
2018-07-25T01:14:12.391Z,51.80
2018-07-25T01:16:40.434Z,52.24
2018-07-25T01:19:08.465Z,52.33
2018-07-25T01:21:36.501Z,51.99
2018-07-25T01:24:04.973Z,52.37
2018-07-25T01:26:32.997Z,51.99
2018-07-25T01:29:01.088Z,52.02
2018-07-25T01:31:29.116Z,52.68
2018-07-25T01:33:57.161Z,52.63
2018-07-25T01:36:25.199Z,52.32
2018-07-25T01:38:53.261Z,51.52
2018-07-25T01:41:21.302Z,51.60
2018-07-25T01:43:49.352Z,52.24
2018-07-25T01:46:17.416Z,51.16
2018-07-25T01:48:45.441Z,51.27
2018-07-25T01:51:13.498Z,51.12
2018-07-25T01:53:41.529Z,51.60
2018-07-25T01:56:09.577Z,52.11
2018-07-25T01:58:37.628Z,51.88
2018-07-25T02:01:05.675Z,51.37
2018-07-25T02:03:33.696Z,51.09
2018-07-25T02:06:01.757Z,51.10
2018-07-25T02:08:29.777Z,50.95
2018-07-25T02:10:57.813Z,51.08
2018-07-25T02:13:25.840Z,51.92
2018-07-25T02:15:53.885Z,51.18
2018-07-25T02:18:21.923Z,51.10
2018-07-25T02:20:49.962Z,51.09
2018-07-25T02:23:18.149Z,52.02
2018-07-25T02:25:46.173Z,51.96
2018-07-25T02:28:14.241Z,51.17
2018-07-25T02:30:42.309Z,51.25
2018-07-25T02:33:10.334Z,52.08
2018-07-25T02:35:38.357Z,51.32
2018-07-25T02:38:06.421Z,51.44
2018-07-25T02:40:34.455Z,51.77
2018-07-25T02:43:02.512Z,51.61
2018-07-25T02:45:35.713Z,51.97
2018-07-25T02:48:03.774Z,51.72
2018-07-25T02:50:31.824Z,52.41
2018-07-25T02:52:59.870Z,51.71
2018-07-25T02:55:27.917Z,51.91
2018-07-25T02:57:55.972Z,52.85
2018-07-25T03:00:24.000Z,52.92
2018-07-25T03:02:52.986Z,52.11
2018-07-25T03:05:21.049Z,53.19
2018-07-25T03:07:49.093Z,53.00
2018-07-25T03:10:17.258Z,53.03
2018-07-25T03:12:45.303Z,53.19
2018-07-25T03:15:13.328Z,52.36
2018-07-25T03:17:41.364Z,52.48
2018-07-25T03:20:09.421Z,53.23
2018-07-25T03:22:37.468Z,52.96
2018-07-25T03:25:05.524Z,53.12
2018-07-25T03:27:33.592Z,52.45
2018-07-25T03:30:01.629Z,52.74
2018-07-25T03:32:29.683Z,53.18
2018-07-25T03:34:57.736Z,53.26
2018-07-25T03:37:25.862Z,52.84
2018-07-25T03:39:53.901Z,53.84
2018-07-25T03:42:22.064Z,53.02
2018-07-25T03:44:50.126Z,52.71
2018-07-25T03:47:18.488Z,52.99
2018-07-25T03:49:46.686Z,53.28
2018-07-25T03:52:14.739Z,53.09
2018-07-25T03:54:42.869Z,54.43
2018-07-25T03:57:11.067Z,54.65
2018-07-25T03:59:39.128Z,54.69
2018-07-25T04:02:07.214Z,54.53
2018-07-25T04:04:35.425Z,53.93
2018-07-25T04:07:03.709Z,54.29
2018-07-25T04:09:31.774Z,54.50
2018-07-25T04:11:59.961Z,53.95
2018-07-25T04:14:28.005Z,54.37
2018-07-25T04:16:56.048Z,54.28
2018-07-25T04:19:24.469Z,54.64
2018-07-25T04:21:52.513Z,54.16
2018-07-25T04:24:20.574Z,54.25
2018-07-25T04:26:48.624Z,53.97
2018-07-25T04:29:16.648Z,54.46
2018-07-25T04:31:44.708Z,54.15
2018-07-25T04:34:12.757Z,54.25
2018-07-25T04:36:40.965Z,54.20
2018-07-25T04:39:11.144Z,54.26
2018-07-25T04:41:39.433Z,54.76
2018-07-25T04:44:07.485Z,54.45
2018-07-25T04:46:35.604Z,54.05
2018-07-25T04:49:03.776Z,53.90
2018-07-25T04:51:31.896Z,54.20
2018-07-25T04:53:59.961Z,54.71
2018-07-25T04:56:28.012Z,53.96
2018-07-25T04:58:56.030Z,54.30
2018-07-25T05:01:24.085Z,54.11
2018-07-25T05:03:52.125Z,54.47
2018-07-25T05:06:20.180Z,54.84
2018-07-25T05:08:48.241Z,54.79
2018-07-25T05:11:16.283Z,54.14
2018-07-25T05:13:44.356Z,54.50
2018-07-25T05:16:12.436Z,54.98
2018-07-25T05:18:40.484Z,55.01
2018-07-25T05:21:08.517Z,54.41
2018-07-25T05:23:36.565Z,54.24
2018-07-25T05:26:04.913Z,54.81
2018-07-25T05:28:32.976Z,54.57
2018-07-25T05:31:01.127Z,53.83
2018-07-25T05:33:29.182Z,54.23
2018-07-25T05:35:57.236Z,54.89
2018-07-25T05:38:25.284Z,54.07
2018-07-25T05:40:53.329Z,54.13
2018-07-25T05:43:21.523Z,54.64
2018-07-25T05:45:49.582Z,54.87
2018-07-25T05:48:17.641Z,53.75
2018-07-25T05:50:45.687Z,54.44
2018-07-25T05:53:13.742Z,54.40
2018-07-25T05:55:41.770Z,53.87
2018-07-25T05:58:09.860Z,54.71
2018-07-25T06:00:37.881Z,54.54
2018-07-25T06:03:06.028Z,53.90
2018-07-25T06:05:34.145Z,54.06
2018-07-25T06:08:02.273Z,54.27
2018-07-25T06:10:30.334Z,53.38
2018-07-25T06:12:59.164Z,53.69
2018-07-25T06:15:27.818Z,54.04
2018-07-25T06:17:55.880Z,53.43
2018-07-25T06:20:23.934Z,53.24
2018-07-25T06:22:51.994Z,52.55
2018-07-25T06:25:20.061Z,52.77
2018-07-25T06:27:48.136Z,52.50
2018-07-25T06:30:16.188Z,52.71
2018-07-25T06:32:44.256Z,52.55
2018-07-25T06:35:12.388Z,52.45
2018-07-25T06:37:40.426Z,51.60
2018-07-25T06:40:08.513Z,52.28
2018-07-25T06:42:36.771Z,52.03
2018-07-25T06:45:05.651Z,51.08
2018-07-25T06:47:33.875Z,50.46
2018-07-25T06:50:01.962Z,50.17
2018-07-25T06:52:30.021Z,49.81
2018-07-25T06:54:58.069Z,49.67
2018-07-25T06:57:26.196Z,49.25
2018-07-25T06:59:54.182Z,49.24
2018-07-25T07:02:22.225Z,48.71
2018-07-25T07:04:50.279Z,49.59
2018-07-25T07:07:18.540Z,49.50
2018-07-25T07:09:46.601Z,48.42
2018-07-25T07:12:15.040Z,47.95
2018-07-25T07:14:43.017Z,47.92
2018-07-25T07:17:11.460Z,48.05
2018-07-25T07:19:39.508Z,47.04
2018-07-25T07:22:07.569Z,46.29
2018-07-25T07:24:35.625Z,45.67
2018-07-25T07:27:03.699Z,46.77
2018-07-25T07:29:31.764Z,46.28
2018-07-25T07:31:59.805Z,46.22
2018-07-25T07:34:27.847Z,46.23
2018-07-25T07:36:55.886Z,46.74
2018-07-25T07:39:23.957Z,45.43
2018-07-25T07:41:52.009Z,45.34
2018-07-25T07:44:20.092Z,45.50
2018-07-25T07:46:48.278Z,45.05
2018-07-25T07:49:16.320Z,42.61
2018-07-25T07:51:44.365Z,43.98
2018-07-25T07:54:12.420Z,43.66
2018-07-25T07:56:40.482Z,43.27
2018-07-25T07:59:08.526Z,42.93
2018-07-25T08:01:36.564Z,42.94
2018-07-25T08:04:04.988Z,42.08
2018-07-25T08:06:33.051Z,42.94
2018-07-25T08:09:01.096Z,41.94
2018-07-25T08:11:29.152Z,41.81
2018-07-25T08:13:57.188Z,40.68
2018-07-25T08:16:25.258Z,41.31
2018-07-25T08:18:53.448Z,41.14
2018-07-25T08:21:21.497Z,41.01
2018-07-25T08:23:49.535Z,40.64
2018-07-25T08:26:17.597Z,39.91
2018-07-25T08:28:45.620Z,39.31
2018-07-25T08:31:13.658Z,39.20
2018-07-25T08:33:41.818Z,40.30
2018-07-25T08:36:09.861Z,39.30
2018-07-25T08:38:40.054Z,39.30
2018-07-25T08:41:08.220Z,38.13
2018-07-25T08:43:37.174Z,38.85
2018-07-25T08:46:05.639Z,38.61
2018-07-25T08:48:33.670Z,38.06
2018-07-25T08:51:01.999Z,38.02
2018-07-25T08:53:30.092Z,37.51
2018-07-25T08:55:58.448Z,37.53
2018-07-25T08:58:26.500Z,37.38
2018-07-25T09:00:54.544Z,35.63
2018-07-25T09:03:22.954Z,35.65
2018-07-25T09:05:50.988Z,36.90
2018-07-25T09:08:19.021Z,37.36
2018-07-25T09:10:47.091Z,35.76
2018-07-25T09:13:15.121Z,36.08
2018-07-25T09:15:43.204Z,36.12
2018-07-25T09:18:11.266Z,34.84
2018-07-25T09:20:39.366Z,34.94
2018-07-25T09:23:07.404Z,34.48
2018-07-25T09:25:35.535Z,35.59
2018-07-25T09:28:03.509Z,34.46
2018-07-25T09:30:32.251Z,35.05
2018-07-25T09:33:00.287Z,35.47
2018-07-25T09:35:28.508Z,34.15
2018-07-25T09:37:56.554Z,34.88
2018-07-25T09:40:24.565Z,34.70
2018-07-25T09:42:52.618Z,33.17
2018-07-25T09:45:20.671Z,33.23
2018-07-25T09:47:49.695Z,33.77
2018-07-25T09:50:18.213Z,33.34
2018-07-25T09:52:46.264Z,33.03
2018-07-25T09:55:14.289Z,33.40
2018-07-25T09:57:42.334Z,32.46
2018-07-25T10:00:12.014Z,32.41
2018-07-25T10:02:40.758Z,31.73
2018-07-25T10:05:09.662Z,31.90
2018-07-25T10:07:37.732Z,32.27
2018-07-25T10:10:06.298Z,31.44
2018-07-25T10:12:34.358Z,32.00
2018-07-25T10:15:03.525Z,32.13
2018-07-25T10:17:31.450Z,32.42
2018-07-25T10:19:59.488Z,31.65
2018-07-25T10:22:27.568Z,32.06
2018-07-25T10:24:55.574Z,31.97
2018-07-25T10:27:23.719Z,31.45
2018-07-25T10:29:51.644Z,31.75
2018-07-25T10:32:19.699Z,31.35
2018-07-25T10:34:47.908Z,30.74
2018-07-25T10:37:16.751Z,31.27
2018-07-25T10:39:44.790Z,31.24
2018-07-25T10:42:12.853Z,30.66
2018-07-25T10:44:40.886Z,31.46
2018-07-25T10:47:09.146Z,30.88
2018-07-25T10:49:37.359Z,31.42
2018-07-25T10:52:05.400Z,31.01
2018-07-25T10:54:33.445Z,31.35
2018-07-25T10:57:01.503Z,31.93
2018-07-25T10:59:29.545Z,31.39
2018-07-25T11:01:57.586Z,31.01
2018-07-25T11:04:25.648Z,31.11
2018-07-25T11:06:53.670Z,31.05
2018-07-25T11:09:21.736Z,31.38
2018-07-25T11:11:49.759Z,31.39
2018-07-25T11:14:17.798Z,30.68
2018-07-25T11:16:45.870Z,30.86
2018-07-25T11:19:13.911Z,30.91
2018-07-25T11:21:41.945Z,31.24
2018-07-25T11:24:10.125Z,30.87
2018-07-25T11:26:38.155Z,30.95
2018-07-25T11:29:06.183Z,31.33
2018-07-25T11:31:34.235Z,31.12
2018-07-25T11:34:02.266Z,31.64
2018-07-25T11:36:30.300Z,30.92
2018-07-25T11:38:58.338Z,30.42
2018-07-25T11:41:26.384Z,31.18
2018-07-25T11:43:54.425Z,31.42
2018-07-25T11:46:22.457Z,30.43
2018-07-25T11:48:50.521Z,31.04
2018-07-25T11:51:18.545Z,30.36
2018-07-25T11:53:46.585Z,30.42
2018-07-25T11:56:14.723Z,30.48
2018-07-25T11:58:42.786Z,29.86
2018-07-25T12:01:10.878Z,30.17
2018-07-25T12:03:38.877Z,31.00
2018-07-25T12:06:07.113Z,30.92
2018-07-25T12:08:35.161Z,31.15
2018-07-25T12:11:03.371Z,29.88
2018-07-25T12:13:31.433Z,30.50
2018-07-25T12:15:59.480Z,29.71
2018-07-25T12:18:27.520Z,29.54
2018-07-25T12:20:55.572Z,30.22
2018-07-25T12:23:23.641Z,29.44
2018-07-25T12:25:51.682Z,29.88
2018-07-25T12:28:19.752Z,30.29
2018-07-25T12:30:48.429Z,30.12
2018-07-25T12:33:16.588Z,30.48
2018-07-25T12:35:44.629Z,30.00
2018-07-25T12:38:12.705Z,29.65
2018-07-25T12:40:40.741Z,30.04
2018-07-25T12:43:08.781Z,30.28
2018-07-25T12:45:36.838Z,30.04
2018-07-25T12:48:04.959Z,30.31
2018-07-25T12:50:33.037Z,29.74
2018-07-25T12:53:01.125Z,29.86
2018-07-25T12:55:29.897Z,29.87
2018-07-25T12:57:57.951Z,29.71
2018-07-25T13:00:26.034Z,28.65
2018-07-25T13:02:54.171Z,28.54
2018-07-25T13:05:22.147Z,29.09
2018-07-25T13:07:50.233Z,29.14
2018-07-25T13:10:18.289Z,28.55
2018-07-25T13:12:46.473Z,28.74
2018-07-25T13:15:14.513Z,28.27
2018-07-25T13:17:42.706Z,28.60
2018-07-25T13:20:10.751Z,28.38
2018-07-25T13:22:38.809Z,28.87
2018-07-25T13:25:07.135Z,28.45
2018-07-25T13:27:35.270Z,28.60
2018-07-25T13:30:03.422Z,28.54
2018-07-25T13:32:31.473Z,28.63
2018-07-25T13:34:59.540Z,28.17
2018-07-25T13:37:27.576Z,27.64
2018-07-25T13:39:56.585Z,28.69
2018-07-25T13:42:25.516Z,28.26
2018-07-25T13:44:53.593Z,29.61
2018-07-25T13:47:21.658Z,28.55
2018-07-25T13:49:49.684Z,28.13
2018-07-25T13:52:17.751Z,28.73
2018-07-25T13:54:45.832Z,28.20
2018-07-25T13:57:13.871Z,27.36
2018-07-25T13:59:41.916Z,27.64
2018-07-25T14:02:09.948Z,27.15
2018-07-25T14:04:38.009Z,27.42
2018-07-25T14:07:06.058Z,27.83
2018-07-25T14:09:34.219Z,29.05
2018-07-25T14:12:03.490Z,27.80
2018-07-25T14:14:31.485Z,28.37
2018-07-25T14:16:59.525Z,28.01
2018-07-25T14:19:27.585Z,27.75
2018-07-25T14:21:55.637Z,27.55
2018-07-25T14:24:23.797Z,28.06
2018-07-25T14:26:51.835Z,27.14
2018-07-25T14:29:19.876Z,28.12
2018-07-25T14:31:47.869Z,27.36
2018-07-25T14:34:16.713Z,27.85
2018-07-25T14:36:44.677Z,27.33
2018-07-25T14:39:12.837Z,27.86
2018-07-25T14:41:41.432Z,27.61
2018-07-25T14:44:10.701Z,28.01
2018-07-25T14:46:38.787Z,28.65
2018-07-25T14:49:06.842Z,28.27
2018-07-25T14:51:34.989Z,27.64
2018-07-25T14:54:02.935Z,28.00
2018-07-25T14:56:31.280Z,28.25
2018-07-25T14:58:59.586Z,28.65
2018-07-25T15:01:27.650Z,28.40
2018-07-25T15:03:55.676Z,27.86
2018-07-25T15:06:23.729Z,28.14
2018-07-25T15:08:51.759Z,28.27
2018-07-25T15:11:20.392Z,27.10
2018-07-25T15:13:48.709Z,27.92
2018-07-25T15:16:17.094Z,27.23
2018-07-25T15:18:45.109Z,27.70
2018-07-25T15:21:13.412Z,28.87
2018-07-25T15:23:53.399Z,28.33
2018-07-25T15:26:22.513Z,28.29
2018-07-25T15:28:50.578Z,28.42
2018-07-25T15:31:19.080Z,29.21
2018-07-25T15:33:47.456Z,27.53
2018-07-25T15:36:50.408Z,27.38
2018-07-25T15:39:21.472Z,28.25
2018-07-25T15:41:50.384Z,28.45
2018-07-25T15:44:19.280Z,28.21
2018-07-25T15:46:47.347Z,28.78
2018-07-25T15:49:15.364Z,29.00
2018-07-25T15:51:43.427Z,28.70
2018-07-25T15:54:11.870Z,28.83
2018-07-25T15:56:39.986Z,28.11
2018-07-25T15:59:08.320Z,28.50
2018-07-25T16:01:36.380Z,28.49
2018-07-25T16:04:04.955Z,28.18
2018-07-25T16:06:32.999Z,29.10
2018-07-25T16:09:01.022Z,29.27
2018-07-25T16:11:29.077Z,28.63
2018-07-25T16:13:57.913Z,29.35
2018-07-25T16:16:25.958Z,29.54
2018-07-25T16:18:53.983Z,29.26
2018-07-25T16:21:22.021Z,28.93
2018-07-25T16:23:50.094Z,28.97
2018-07-25T16:26:18.071Z,29.54
2018-07-25T16:28:46.166Z,29.38
2018-07-25T16:31:14.197Z,30.37
2018-07-25T16:33:42.256Z,31.60
2018-07-25T16:36:10.369Z,31.69
2018-07-25T16:38:38.763Z,33.24
2018-07-25T16:41:06.874Z,32.50
2018-07-25T16:43:34.919Z,33.83
2018-07-25T16:46:02.978Z,35.41
2018-07-25T16:48:31.006Z,35.37
2018-07-25T16:50:59.046Z,37.46
2018-07-25T16:53:27.090Z,36.79
2018-07-25T16:55:55.135Z,38.16
2018-07-25T16:58:23.176Z,39.27
2018-07-25T17:00:51.210Z,37.45
2018-07-25T17:03:19.245Z,36.22
2018-07-25T17:05:47.276Z,36.06
2018-07-25T17:08:15.284Z,35.63
2018-07-25T17:10:43.345Z,35.90
2018-07-25T17:13:11.632Z,37.24
2018-07-25T17:15:39.658Z,38.46
2018-07-25T17:18:07.689Z,40.70
2018-07-25T17:20:35.748Z,41.60
2018-07-25T17:23:04.512Z,43.30
2018-07-25T17:25:32.532Z,45.03
2018-07-25T17:28:00.556Z,45.96
2018-07-25T17:30:28.598Z,46.38
2018-07-25T17:32:56.786Z,47.76
2018-07-25T17:35:25.330Z,48.41
2018-07-25T17:37:53.282Z,49.29
2018-07-25T17:40:21.301Z,49.53
2018-07-25T17:42:49.344Z,48.41
2018-07-25T17:45:17.369Z,48.71
2018-07-25T17:47:45.401Z,48.66
2018-07-25T17:50:13.846Z,49.81
2018-07-25T17:52:41.874Z,49.76
2018-07-25T17:55:09.917Z,49.30
2018-07-25T17:57:37.937Z,50.29
2018-07-25T18:00:07.958Z,50.19
2018-07-25T18:02:35.980Z,49.29
2018-07-25T18:05:05.312Z,50.28
2018-07-25T18:07:33.332Z,51.03
2018-07-25T18:10:01.348Z,51.46
2018-07-25T18:12:29.368Z,52.62
2018-07-25T18:14:57.404Z,51.78
2018-07-25T18:17:32.124Z,51.62
2018-07-25T18:20:00.208Z,51.33
2018-07-25T18:22:28.237Z,52.34
2018-07-25T18:24:56.269Z,54.65
2018-07-25T18:27:24.629Z,56.08
2018-07-25T18:29:52.700Z,55.51
2018-07-25T18:32:20.738Z,57.28
2018-07-25T18:34:48.842Z,58.64
2018-07-25T18:37:16.848Z,59.11
2018-07-25T18:39:44.881Z,59.13
2018-07-25T18:42:12.910Z,60.02
2018-07-25T18:44:40.986Z,60.91
2018-07-25T18:47:09.049Z,62.11
2018-07-25T18:49:37.049Z,62.49
2018-07-25T18:52:05.108Z,62.08
2018-07-25T18:54:33.140Z,62.66
2018-07-25T18:57:01.162Z,63.81
2018-07-25T18:59:29.193Z,64.23
2018-07-25T19:01:57.263Z,65.09
2018-07-25T19:04:25.229Z,66.01
2018-07-25T19:06:53.250Z,64.88
2018-07-25T19:09:21.281Z,64.72
2018-07-25T19:11:49.320Z,64.23
2018-07-25T19:14:22.818Z,64.35
2018-07-25T19:16:50.843Z,64.56
2018-07-25T19:19:18.868Z,64.42
2018-07-25T19:21:46.917Z,65.03
2018-07-25T19:24:14.937Z,65.28
2018-07-25T19:26:42.974Z,64.49
2018-07-25T19:29:11.008Z,64.19
2018-07-25T19:31:39.034Z,65.08
2018-07-25T19:34:07.065Z,64.61
2018-07-25T19:36:35.096Z,65.51
2018-07-25T19:39:03.190Z,66.29
2018-07-25T19:41:31.222Z,65.72
2018-07-25T19:43:59.245Z,64.73
2018-07-25T19:46:27.308Z,65.14
2018-07-25T19:48:55.346Z,65.25
2018-07-25T19:51:23.372Z,65.40
2018-07-25T19:53:51.414Z,65.07
2018-07-25T19:56:19.462Z,65.36
2018-07-25T19:58:47.482Z,65.03
2018-07-25T20:01:15.524Z,64.49
2018-07-25T20:03:43.573Z,65.51
2018-07-25T20:06:11.632Z,64.41
2018-07-25T20:08:39.681Z,65.81
2018-07-25T20:11:07.998Z,64.98
2018-07-25T20:13:40.233Z,64.74
2018-07-25T20:16:08.275Z,65.36
2018-07-25T20:18:36.306Z,65.09
2018-07-25T20:21:04.791Z,65.98
2018-07-25T20:23:32.789Z,66.00
2018-07-25T20:26:00.817Z,67.08
2018-07-25T20:28:28.869Z,67.20
2018-07-25T20:30:56.897Z,66.28
2018-07-25T20:33:24.986Z,67.39
2018-07-25T20:35:53.012Z,66.79
2018-07-25T20:38:21.026Z,67.90
2018-07-25T20:40:49.073Z,67.73
2018-07-25T20:43:17.576Z,68.06
2018-07-25T20:45:45.605Z,67.75
2018-07-25T20:48:13.644Z,67.19
2018-07-25T20:50:41.706Z,66.76
2018-07-25T20:53:09.745Z,66.71
2018-07-25T20:55:37.781Z,67.81
2018-07-25T20:58:05.829Z,68.01
2018-07-25T21:00:34.433Z,67.92
2018-07-25T21:03:03.500Z,67.83
2018-07-25T21:05:31.994Z,67.97
2018-07-25T21:08:00.051Z,68.15
2018-07-25T21:10:28.090Z,67.60
2018-07-25T21:12:56.104Z,67.62
2018-07-25T21:15:24.439Z,67.09
2018-07-25T21:17:52.490Z,67.60
2018-07-25T21:20:20.532Z,67.30
2018-07-25T21:22:48.613Z,67.95
2018-07-25T21:25:16.688Z,67.48
2018-07-25T21:27:44.733Z,67.58
2018-07-25T21:30:12.785Z,67.50
2018-07-25T21:32:40.930Z,67.34
2018-07-25T21:35:09.026Z,69.19
2018-07-25T21:37:37.073Z,68.57
2018-07-25T21:40:05.275Z,68.24
2018-07-25T21:42:33.378Z,68.08
2018-07-25T21:45:01.427Z,68.85
2018-07-25T21:47:29.477Z,68.27
2018-07-25T21:49:57.516Z,68.42
2018-07-25T21:52:25.550Z,67.83
2018-07-25T21:54:53.608Z,67.95
2018-07-25T21:57:21.672Z,67.47
2018-07-25T21:59:49.788Z,67.20
2018-07-25T22:02:17.851Z,68.04
2018-07-25T22:04:45.875Z,68.13
2018-07-25T22:07:13.925Z,67.76
2018-07-25T22:09:41.983Z,68.14
2018-07-25T22:12:10.067Z,67.83
2018-07-25T22:14:38.094Z,67.24
2018-07-25T22:17:06.164Z,68.09
2018-07-25T22:19:34.202Z,67.90
2018-07-25T22:22:02.238Z,67.76
2018-07-25T22:24:30.282Z,67.54
2018-07-25T22:26:58.330Z,68.46
2018-07-25T22:29:26.400Z,67.99
2018-07-25T22:31:54.429Z,68.63
2018-07-25T22:34:22.482Z,68.12
2018-07-25T22:36:50.549Z,67.85
2018-07-25T22:39:18.580Z,68.33
2018-07-25T22:41:46.612Z,68.09
2018-07-25T22:44:14.681Z,68.19
2018-07-25T22:46:42.730Z,67.78
2018-07-25T22:49:10.783Z,66.82
2018-07-25T22:51:38.824Z,67.32
2018-07-25T22:54:06.869Z,67.13
2018-07-25T22:56:34.913Z,67.25
2018-07-25T22:59:03.021Z,67.14
2018-07-25T23:01:31.074Z,66.85
2018-07-25T23:03:59.106Z,66.16
2018-07-25T23:06:27.192Z,66.22
2018-07-25T23:08:55.221Z,65.61
2018-07-25T23:11:23.270Z,66.04
2018-07-25T23:13:51.323Z,65.90
2018-07-25T23:16:19.377Z,65.35
2018-07-25T23:18:47.657Z,65.83
2018-07-25T23:21:15.683Z,65.60
2018-07-25T23:23:43.717Z,65.33
2018-07-25T23:26:11.744Z,65.63
2018-07-25T23:28:39.774Z,65.75
2018-07-25T23:31:07.857Z,65.59
2018-07-25T23:33:35.894Z,65.86
2018-07-25T23:36:03.917Z,64.67
2018-07-25T23:38:31.952Z,65.22
2018-07-25T23:41:00.007Z,64.89
2018-07-25T23:43:28.050Z,65.64
2018-07-25T23:45:56.102Z,66.03
2018-07-25T23:48:24.144Z,65.25
2018-07-25T23:50:52.202Z,65.36
2018-07-25T23:53:20.269Z,65.62
2018-07-25T23:55:48.305Z,65.27
2018-07-25T23:58:16.340Z,64.54
